sensor_id;sensor_type;location;lat;lon;timestamp;temperature;humidity
21019;DHT22;10667;51.056;3.732;2023-04-25T00:01:15;10.70;99.90
21019;DHT22;10667;51.056;3.732;2023-04-25T00:03:41;10.90;99.90
21019;DHT22;10667;51.056;3.732;2023-04-25T00:06:06;10.90;99.90
21019;DHT22;10667;51.056;3.732;2023-04-25T00:08:33;10.70;99.90
21019;DHT22;10667;51.056;3.732;2023-04-25T00:11:00;10.70;99.90
21019;DHT22;10667;51.056;3.732;2023-04-25T00:13:25;10.60;99.90
21019;DHT22;10667;51.056;3.732;2023-04-25T00:15:52;10.90;99.90
21019;DHT22;10667;51.056;3.732;2023-04-25T00:18:19;11.00;99.90
21019;DHT22;10667;51.056;3.732;2023-04-25T00:20:44;11.00;99.90
21019;DHT22;10667;51.056;3.732;2023-04-25T00:23:13;10.90;99.90
21019;DHT22;10667;51.056;3.732;2023-04-25T00:25:44;10.90;99.90
21019;DHT22;10667;51.056;3.732;2023-04-25T00:28:11;10.90;99.90
21019;DHT22;10667;51.056;3.732;2023-04-25T00:30:36;11.00;99.90
21019;DHT22;10667;51.056;3.732;2023-04-25T00:33:02;10.80;99.90
21019;DHT22;10667;51.056;3.732;2023-04-25T00:35:28;10.90;99.90
21019;DHT22;10667;51.056;3.732;2023-04-25T00:37:54;10.90;99.90
21019;DHT22;10667;51.056;3.732;2023-04-25T00:40:20;10.80;99.90
21019;DHT22;10667;51.056;3.732;2023-04-25T00:42:47;10.80;99.90
21019;DHT22;10667;51.056;3.732;2023-04-25T00:45:14;11.00;99.90
21019;DHT22;10667;51.056;3.732;2023-04-25T00:47:43;10.90;99.90
21019;DHT22;10667;51.056;3.732;2023-04-25T00:50:10;10.90;99.90
21019;DHT22;10667;51.056;3.732;2023-04-25T00:52:39;10.80;99.90
21019;DHT22;10667;51.056;3.732;2023-04-25T00:55:07;10.80;99.90
21019;DHT22;10667;51.056;3.732;2023-04-25T00:57:33;10.80;99.90
21019;DHT22;10667;51.056;3.732;2023-04-25T00:59:59;10.80;99.90
21019;DHT22;10667;51.056;3.732;2023-04-25T01:02:25;10.80;99.90
21019;DHT22;10667;51.056;3.732;2023-04-25T01:04:52;10.90;99.90
21019;DHT22;10667;51.056;3.732;2023-04-25T01:07:18;10.60;99.90
21019;DHT22;10667;51.056;3.732;2023-04-25T01:09:44;10.70;99.90
21019;DHT22;10667;51.056;3.732;2023-04-25T01:12:09;10.70;99.90
21019;DHT22;10667;51.056;3.732;2023-04-25T01:14:35;10.60;99.90
21019;DHT22;10667;51.056;3.732;2023-04-25T01:17:01;10.70;99.90
21019;DHT22;10667;51.056;3.732;2023-04-25T01:19:27;10.90;99.90
21019;DHT22;10667;51.056;3.732;2023-04-25T01:21:52;10.70;99.90
21019;DHT22;10667;51.056;3.732;2023-04-25T01:24:18;10.70;99.90
21019;DHT22;10667;51.056;3.732;2023-04-25T01:26:44;10.70;99.90
21019;DHT22;10667;51.056;3.732;2023-04-25T01:29:17;10.60;99.90
21019;DHT22;10667;51.056;3.732;2023-04-25T01:31:43;10.70;99.90
21019;DHT22;10667;51.056;3.732;2023-04-25T01:34:09;10.70;99.90
21019;DHT22;10667;51.056;3.732;2023-04-25T01:36:35;10.40;99.90
21019;DHT22;10667;51.056;3.732;2023-04-25T01:39:01;10.40;99.90
21019;DHT22;10667;51.056;3.732;2023-04-25T01:41:27;10.50;99.90
21019;DHT22;10667;51.056;3.732;2023-04-25T01:43:53;10.60;99.90
21019;DHT22;10667;51.056;3.732;2023-04-25T01:46:19;10.60;99.90
21019;DHT22;10667;51.056;3.732;2023-04-25T01:48:45;10.40;99.90
21019;DHT22;10667;51.056;3.732;2023-04-25T01:51:11;10.50;99.90
21019;DHT22;10667;51.056;3.732;2023-04-25T01:53:38;10.60;99.90
21019;DHT22;10667;51.056;3.732;2023-04-25T01:56:04;10.40;99.90
21019;DHT22;10667;51.056;3.732;2023-04-25T01:58:30;10.50;99.90
21019;DHT22;10667;51.056;3.732;2023-04-25T02:00:55;10.50;99.90
21019;DHT22;10667;51.056;3.732;2023-04-25T02:03:21;10.40;99.90
21019;DHT22;10667;51.056;3.732;2023-04-25T02:05:47;10.40;99.90
21019;DHT22;10667;51.056;3.732;2023-04-25T02:08:13;10.40;99.90
21019;DHT22;10667;51.056;3.732;2023-04-25T02:10:38;10.20;99.90
21019;DHT22;10667;51.056;3.732;2023-04-25T02:13:04;10.20;99.90
21019;DHT22;10667;51.056;3.732;2023-04-25T02:15:30;10.30;99.90
21019;DHT22;10667;51.056;3.732;2023-04-25T02:17:56;10.30;99.90
21019;DHT22;10667;51.056;3.732;2023-04-25T02:20:24;10.00;99.90
21019;DHT22;10667;51.056;3.732;2023-04-25T02:22:50;10.00;99.90
21019;DHT22;10667;51.056;3.732;2023-04-25T02:25:16;10.00;99.90
21019;DHT22;10667;51.056;3.732;2023-04-25T02:27:42;10.20;99.90
21019;DHT22;10667;51.056;3.732;2023-04-25T02:30:09;10.30;99.90
21019;DHT22;10667;51.056;3.732;2023-04-25T02:32:34;10.30;99.90
21019;DHT22;10667;51.056;3.732;2023-04-25T02:35:01;10.10;99.90
21019;DHT22;10667;51.056;3.732;2023-04-25T02:37:34;10.10;99.90
21019;DHT22;10667;51.056;3.732;2023-04-25T02:40:00;10.20;99.90
21019;DHT22;10667;51.056;3.732;2023-04-25T02:42:26;10.20;99.90
21019;DHT22;10667;51.056;3.732;2023-04-25T02:44:52;10.20;99.90
21019;DHT22;10667;51.056;3.732;2023-04-25T02:47:18;10.10;99.90
21019;DHT22;10667;51.056;3.732;2023-04-25T02:49:44;10.00;99.90
21019;DHT22;10667;51.056;3.732;2023-04-25T02:52:10;10.20;99.90
21019;DHT22;10667;51.056;3.732;2023-04-25T02:54:36;10.30;99.90
21019;DHT22;10667;51.056;3.732;2023-04-25T02:57:02;10.40;99.90
21019;DHT22;10667;51.056;3.732;2023-04-25T02:59:28;10.40;99.90
21019;DHT22;10667;51.056;3.732;2023-04-25T03:01:54;10.20;99.90
21019;DHT22;10667;51.056;3.732;2023-04-25T03:04:20;10.10;99.90
21019;DHT22;10667;51.056;3.732;2023-04-25T03:06:46;10.00;99.90
21019;DHT22;10667;51.056;3.732;2023-04-25T03:09:12;10.10;99.90
21019;DHT22;10667;51.056;3.732;2023-04-25T03:11:39;10.00;99.90
21019;DHT22;10667;51.056;3.732;2023-04-25T03:14:04;10.20;99.90
21019;DHT22;10667;51.056;3.732;2023-04-25T03:16:30;10.10;99.90
21019;DHT22;10667;51.056;3.732;2023-04-25T03:18:56;10.10;99.90
21019;DHT22;10667;51.056;3.732;2023-04-25T03:21:22;9.90;99.90
21019;DHT22;10667;51.056;3.732;2023-04-25T03:23:48;9.80;99.90
21019;DHT22;10667;51.056;3.732;2023-04-25T03:26:14;9.80;99.90
21019;DHT22;10667;51.056;3.732;2023-04-25T03:28:39;9.90;99.90
21019;DHT22;10667;51.056;3.732;2023-04-25T03:31:05;10.00;99.90
21019;DHT22;10667;51.056;3.732;2023-04-25T03:33:31;9.90;99.90
21019;DHT22;10667;51.056;3.732;2023-04-25T03:35:57;9.90;99.90
21019;DHT22;10667;51.056;3.732;2023-04-25T03:38:23;9.90;99.90
21019;DHT22;10667;51.056;3.732;2023-04-25T03:40:49;9.90;99.90
21019;DHT22;10667;51.056;3.732;2023-04-25T03:43:16;9.90;99.90
21019;DHT22;10667;51.056;3.732;2023-04-25T03:45:42;9.70;99.90
21019;DHT22;10667;51.056;3.732;2023-04-25T03:48:07;9.60;99.90
21019;DHT22;10667;51.056;3.732;2023-04-25T03:50:33;9.70;99.90
21019;DHT22;10667;51.056;3.732;2023-04-25T03:52:59;9.80;99.90
21019;DHT22;10667;51.056;3.732;2023-04-25T03:55:24;9.70;99.90
21019;DHT22;10667;51.056;3.732;2023-04-25T03:57:50;9.80;99.90
21019;DHT22;10667;51.056;3.732;2023-04-25T04:00:15;9.80;99.90
21019;DHT22;10667;51.056;3.732;2023-04-25T04:02:42;9.80;99.90
21019;DHT22;10667;51.056;3.732;2023-04-25T04:05:07;9.80;99.90
21019;DHT22;10667;51.056;3.732;2023-04-25T04:07:33;9.80;99.90
21019;DHT22;10667;51.056;3.732;2023-04-25T04:10:11;9.90;99.90
21019;DHT22;10667;51.056;3.732;2023-04-25T04:12:37;9.90;99.90
21019;DHT22;10667;51.056;3.732;2023-04-25T04:15:04;9.90;99.90
21019;DHT22;10667;51.056;3.732;2023-04-25T04:17:30;10.00;99.90
21019;DHT22;10667;51.056;3.732;2023-04-25T04:19:56;9.90;99.90
21019;DHT22;10667;51.056;3.732;2023-04-25T04:22:22;9.70;99.90
21019;DHT22;10667;51.056;3.732;2023-04-25T04:24:49;9.70;99.90
21019;DHT22;10667;51.056;3.732;2023-04-25T04:27:16;9.70;99.90
21019;DHT22;10667;51.056;3.732;2023-04-25T04:29:44;9.80;99.90
21019;DHT22;10667;51.056;3.732;2023-04-25T04:32:09;9.60;99.90
21019;DHT22;10667;51.056;3.732;2023-04-25T04:34:35;9.60;99.90
21019;DHT22;10667;51.056;3.732;2023-04-25T04:37:01;9.60;99.90
21019;DHT22;10667;51.056;3.732;2023-04-25T04:39:27;9.40;99.90
21019;DHT22;10667;51.056;3.732;2023-04-25T04:41:53;9.40;99.90
21019;DHT22;10667;51.056;3.732;2023-04-25T04:44:19;9.40;99.90
21019;DHT22;10667;51.056;3.732;2023-04-25T04:46:45;9.60;99.90
21019;DHT22;10667;51.056;3.732;2023-04-25T04:49:12;9.60;99.90
21019;DHT22;10667;51.056;3.732;2023-04-25T04:51:39;9.80;99.90
21019;DHT22;10667;51.056;3.732;2023-04-25T04:54:06;9.80;99.90
21019;DHT22;10667;51.056;3.732;2023-04-25T04:56:32;9.60;99.90
21019;DHT22;10667;51.056;3.732;2023-04-25T04:58:58;9.20;99.90
21019;DHT22;10667;51.056;3.732;2023-04-25T05:01:25;9.30;99.90
21019;DHT22;10667;51.056;3.732;2023-04-25T05:03:51;9.40;99.90
21019;DHT22;10667;51.056;3.732;2023-04-25T05:06:19;9.30;99.90
21019;DHT22;10667;51.056;3.732;2023-04-25T05:08:45;9.20;99.90
21019;DHT22;10667;51.056;3.732;2023-04-25T05:11:10;9.20;99.90
21019;DHT22;10667;51.056;3.732;2023-04-25T05:13:36;9.20;99.90
21019;DHT22;10667;51.056;3.732;2023-04-25T05:16:02;9.20;99.90
21019;DHT22;10667;51.056;3.732;2023-04-25T05:18:28;9.30;99.90
21019;DHT22;10667;51.056;3.732;2023-04-25T05:20:53;9.30;99.90
21019;DHT22;10667;51.056;3.732;2023-04-25T05:23:19;9.20;99.90
21019;DHT22;10667;51.056;3.732;2023-04-25T05:25:45;9.30;99.90
21019;DHT22;10667;51.056;3.732;2023-04-25T05:28:12;9.20;99.90
21019;DHT22;10667;51.056;3.732;2023-04-25T05:30:38;9.40;99.90
21019;DHT22;10667;51.056;3.732;2023-04-25T05:33:04;9.50;99.90
21019;DHT22;10667;51.056;3.732;2023-04-25T05:35:29;9.60;99.90
21019;DHT22;10667;51.056;3.732;2023-04-25T05:37:55;9.70;99.90
21019;DHT22;10667;51.056;3.732;2023-04-25T05:40:21;9.80;99.90
21019;DHT22;10667;51.056;3.732;2023-04-25T05:42:46;9.90;99.90
21019;DHT22;10667;51.056;3.732;2023-04-25T05:45:12;10.10;99.90
21019;DHT22;10667;51.056;3.732;2023-04-25T05:47:38;10.30;99.90
21019;DHT22;10667;51.056;3.732;2023-04-25T05:50:04;10.10;99.90
21019;DHT22;10667;51.056;3.732;2023-04-25T05:52:30;10.20;99.90
21019;DHT22;10667;51.056;3.732;2023-04-25T05:54:55;10.40;99.90
21019;DHT22;10667;51.056;3.732;2023-04-25T05:57:23;10.20;99.90
21019;DHT22;10667;51.056;3.732;2023-04-25T05:59:50;10.20;99.90
21019;DHT22;10667;51.056;3.732;2023-04-25T06:02:15;10.20;99.90
21019;DHT22;10667;51.056;3.732;2023-04-25T06:04:41;10.30;99.90
21019;DHT22;10667;51.056;3.732;2023-04-25T06:07:07;10.10;99.90
21019;DHT22;10667;51.056;3.732;2023-04-25T06:09:32;10.00;99.90
21019;DHT22;10667;51.056;3.732;2023-04-25T06:11:58;10.00;99.90
21019;DHT22;10667;51.056;3.732;2023-04-25T06:14:24;10.20;99.90
21019;DHT22;10667;51.056;3.732;2023-04-25T06:16:49;10.10;99.90
21019;DHT22;10667;51.056;3.732;2023-04-25T06:19:15;10.00;99.90
21019;DHT22;10667;51.056;3.732;2023-04-25T06:21:42;10.30;99.90
21019;DHT22;10667;51.056;3.732;2023-04-25T06:24:08;10.30;99.90
21019;DHT22;10667;51.056;3.732;2023-04-25T06:26:34;10.20;99.90
21019;DHT22;10667;51.056;3.732;2023-04-25T06:28:59;10.20;99.90
21019;DHT22;10667;51.056;3.732;2023-04-25T06:31:25;10.20;99.90
21019;DHT22;10667;51.056;3.732;2023-04-25T06:33:51;10.20;99.90
21019;DHT22;10667;51.056;3.732;2023-04-25T06:36:20;10.30;99.90
21019;DHT22;10667;51.056;3.732;2023-04-25T06:38:51;10.20;99.90
21019;DHT22;10667;51.056;3.732;2023-04-25T06:41:17;10.10;99.90
21019;DHT22;10667;51.056;3.732;2023-04-25T06:43:42;10.30;99.90
21019;DHT22;10667;51.056;3.732;2023-04-25T06:46:08;10.10;99.90
21019;DHT22;10667;51.056;3.732;2023-04-25T06:48:34;10.20;99.90
21019;DHT22;10667;51.056;3.732;2023-04-25T06:50:59;10.30;99.90
21019;DHT22;10667;51.056;3.732;2023-04-25T06:53:25;10.40;99.90
21019;DHT22;10667;51.056;3.732;2023-04-25T06:55:50;10.50;99.90
21019;DHT22;10667;51.056;3.732;2023-04-25T06:58:16;10.50;99.90
21019;DHT22;10667;51.056;3.732;2023-04-25T07:00:42;10.40;99.90
21019;DHT22;10667;51.056;3.732;2023-04-25T07:03:08;10.20;99.90
21019;DHT22;10667;51.056;3.732;2023-04-25T07:05:33;10.20;99.90
21019;DHT22;10667;51.056;3.732;2023-04-25T07:07:59;10.20;99.90
21019;DHT22;10667;51.056;3.732;2023-04-25T07:10:25;10.20;99.90
21019;DHT22;10667;51.056;3.732;2023-04-25T07:12:51;10.30;99.90
21019;DHT22;10667;51.056;3.732;2023-04-25T07:15:17;10.20;99.90
21019;DHT22;10667;51.056;3.732;2023-04-25T07:17:43;10.00;99.90
21019;DHT22;10667;51.056;3.732;2023-04-25T07:20:09;10.00;99.90
21019;DHT22;10667;51.056;3.732;2023-04-25T07:22:35;10.10;99.90
21019;DHT22;10667;51.056;3.732;2023-04-25T07:25:01;10.30;99.90
21019;DHT22;10667;51.056;3.732;2023-04-25T07:27:27;10.50;99.90
21019;DHT22;10667;51.056;3.732;2023-04-25T07:29:53;10.50;99.90
21019;DHT22;10667;51.056;3.732;2023-04-25T07:32:19;10.50;99.90
21019;DHT22;10667;51.056;3.732;2023-04-25T07:34:45;10.50;99.90
21019;DHT22;10667;51.056;3.732;2023-04-25T07:37:10;10.50;99.90
21019;DHT22;10667;51.056;3.732;2023-04-25T07:39:36;10.50;99.90
21019;DHT22;10667;51.056;3.732;2023-04-25T07:42:03;10.60;99.90
21019;DHT22;10667;51.056;3.732;2023-04-25T07:44:29;10.60;99.90
21019;DHT22;10667;51.056;3.732;2023-04-25T07:46:56;10.70;99.90
21019;DHT22;10667;51.056;3.732;2023-04-25T07:49:21;10.80;99.90
21019;DHT22;10667;51.056;3.732;2023-04-25T07:51:47;10.80;99.90
21019;DHT22;10667;51.056;3.732;2023-04-25T07:54:14;10.70;99.90
21019;DHT22;10667;51.056;3.732;2023-04-25T07:56:40;10.90;99.90
21019;DHT22;10667;51.056;3.732;2023-04-25T07:59:06;11.00;99.90
21019;DHT22;10667;51.056;3.732;2023-04-25T08:01:33;11.10;99.90
21019;DHT22;10667;51.056;3.732;2023-04-25T08:03:59;11.30;99.90
21019;DHT22;10667;51.056;3.732;2023-04-25T08:06:25;11.60;99.90
21019;DHT22;10667;51.056;3.732;2023-04-25T08:08:51;11.50;99.90
21019;DHT22;10667;51.056;3.732;2023-04-25T08:11:16;11.50;99.90
21019;DHT22;10667;51.056;3.732;2023-04-25T08:13:42;11.40;99.90
21019;DHT22;10667;51.056;3.732;2023-04-25T08:16:08;11.50;99.90
21019;DHT22;10667;51.056;3.732;2023-04-25T08:18:33;11.40;99.90
21019;DHT22;10667;51.056;3.732;2023-04-25T08:20:59;11.10;99.90
21019;DHT22;10667;51.056;3.732;2023-04-25T08:23:25;11.00;99.90
21019;DHT22;10667;51.056;3.732;2023-04-25T08:25:50;10.80;99.90
21019;DHT22;10667;51.056;3.732;2023-04-25T08:28:16;10.70;99.90
21019;DHT22;10667;51.056;3.732;2023-04-25T08:30:42;10.80;99.90
21019;DHT22;10667;51.056;3.732;2023-04-25T08:33:07;10.80;99.90
21019;DHT22;10667;51.056;3.732;2023-04-25T08:35:33;10.80;99.90
21019;DHT22;10667;51.056;3.732;2023-04-25T08:37:59;11.00;99.90
21019;DHT22;10667;51.056;3.732;2023-04-25T08:40:27;11.10;99.90
21019;DHT22;10667;51.056;3.732;2023-04-25T08:42:57;11.30;99.90
21019;DHT22;10667;51.056;3.732;2023-04-25T08:45:23;11.20;99.90
21019;DHT22;10667;51.056;3.732;2023-04-25T08:47:52;11.10;99.90
21019;DHT22;10667;51.056;3.732;2023-04-25T08:50:18;11.10;99.90
21019;DHT22;10667;51.056;3.732;2023-04-25T08:52:47;11.10;99.90
21019;DHT22;10667;51.056;3.732;2023-04-25T08:55:15;11.10;99.90
21019;DHT22;10667;51.056;3.732;2023-04-25T08:57:42;11.30;99.90
21019;DHT22;10667;51.056;3.732;2023-04-25T09:00:10;11.30;99.90
21019;DHT22;10667;51.056;3.732;2023-04-25T09:02:37;11.40;99.90
21019;DHT22;10667;51.056;3.732;2023-04-25T09:05:04;11.50;99.90
21019;DHT22;10667;51.056;3.732;2023-04-25T09:07:30;11.50;99.90
21019;DHT22;10667;51.056;3.732;2023-04-25T09:09:55;11.20;99.90
21019;DHT22;10667;51.056;3.732;2023-04-25T09:12:22;11.40;99.90
21019;DHT22;10667;51.056;3.732;2023-04-25T09:15:14;11.30;99.90
21019;DHT22;10667;51.056;3.732;2023-04-25T09:17:41;11.00;99.90
21019;DHT22;10667;51.056;3.732;2023-04-25T09:20:11;10.50;99.90
21019;DHT22;10667;51.056;3.732;2023-04-25T09:22:37;10.20;99.90
21019;DHT22;10667;51.056;3.732;2023-04-25T09:25:13;10.00;99.90
21019;DHT22;10667;51.056;3.732;2023-04-25T09:27:51;9.60;99.90
21019;DHT22;10667;51.056;3.732;2023-04-25T09:30:17;9.50;99.90
21019;DHT22;10667;51.056;3.732;2023-04-25T09:32:44;9.50;99.90
21019;DHT22;10667;51.056;3.732;2023-04-25T09:35:10;9.50;99.90
21019;DHT22;10667;51.056;3.732;2023-04-25T09:37:36;9.70;99.90
21019;DHT22;10667;51.056;3.732;2023-04-25T09:40:06;9.70;99.90
21019;DHT22;10667;51.056;3.732;2023-04-25T09:42:32;9.70;99.90
21019;DHT22;10667;51.056;3.732;2023-04-25T09:45:00;9.70;99.90
21019;DHT22;10667;51.056;3.732;2023-04-25T09:47:29;9.80;99.90
21019;DHT22;10667;51.056;3.732;2023-04-25T09:49:55;9.90;99.90
21019;DHT22;10667;51.056;3.732;2023-04-25T09:52:22;10.10;99.90
21019;DHT22;10667;51.056;3.732;2023-04-25T09:54:49;10.20;99.90
21019;DHT22;10667;51.056;3.732;2023-04-25T09:57:24;10.50;99.90
21019;DHT22;10667;51.056;3.732;2023-04-25T09:59:52;10.60;99.90
21019;DHT22;10667;51.056;3.732;2023-04-25T10:02:23;10.70;99.90
21019;DHT22;10667;51.056;3.732;2023-04-25T10:04:50;10.70;99.90
21019;DHT22;10667;51.056;3.732;2023-04-25T10:07:18;10.80;99.90
21019;DHT22;10667;51.056;3.732;2023-04-25T10:09:48;10.80;99.90
21019;DHT22;10667;51.056;3.732;2023-04-25T10:12:16;10.80;99.90
21019;DHT22;10667;51.056;3.732;2023-04-25T10:14:42;10.80;99.90
21019;DHT22;10667;51.056;3.732;2023-04-25T10:17:10;10.70;99.90
21019;DHT22;10667;51.056;3.732;2023-04-25T10:19:37;10.80;99.90
21019;DHT22;10667;51.056;3.732;2023-04-25T10:22:17;10.80;99.90
21019;DHT22;10667;51.056;3.732;2023-04-25T10:24:44;10.80;99.90
21019;DHT22;10667;51.056;3.732;2023-04-25T10:27:12;10.70;99.90
21019;DHT22;10667;51.056;3.732;2023-04-25T10:29:38;10.70;99.90
21019;DHT22;10667;51.056;3.732;2023-04-25T10:32:08;10.70;99.90
21019;DHT22;10667;51.056;3.732;2023-04-25T10:34:40;10.70;99.90
21019;DHT22;10667;51.056;3.732;2023-04-25T10:37:09;10.90;99.90
21019;DHT22;10667;51.056;3.732;2023-04-25T10:39:35;10.90;99.90
21019;DHT22;10667;51.056;3.732;2023-04-25T10:42:02;10.90;99.90
21019;DHT22;10667;51.056;3.732;2023-04-25T10:44:29;11.20;99.90
21019;DHT22;10667;51.056;3.732;2023-04-25T10:47:00;11.20;99.90
21019;DHT22;10667;51.056;3.732;2023-04-25T10:49:40;11.40;99.90
21019;DHT22;10667;51.056;3.732;2023-04-25T10:52:26;11.50;99.90
21019;DHT22;10667;51.056;3.732;2023-04-25T10:54:57;11.50;99.90
21019;DHT22;10667;51.056;3.732;2023-04-25T11:03:15;11.20;99.90
21019;DHT22;10667;51.056;3.732;2023-04-25T11:05:35;11.50;99.90
21019;DHT22;10667;51.056;3.732;2023-04-25T11:08:02;11.70;99.90
21019;DHT22;10667;51.056;3.732;2023-04-25T11:10:30;11.90;99.90
21019;DHT22;10667;51.056;3.732;2023-04-25T11:12:56;11.80;99.90
21019;DHT22;10667;51.056;3.732;2023-04-25T11:15:23;11.70;99.90
21019;DHT22;10667;51.056;3.732;2023-04-25T11:17:51;11.70;99.90
21019;DHT22;10667;51.056;3.732;2023-04-25T11:20:17;11.80;99.90
21019;DHT22;10667;51.056;3.732;2023-04-25T11:22:44;11.90;99.90
21019;DHT22;10667;51.056;3.732;2023-04-25T11:25:12;11.90;99.90
21019;DHT22;10667;51.056;3.732;2023-04-25T11:27:58;11.90;99.90
21019;DHT22;10667;51.056;3.732;2023-04-25T11:30:28;12.10;99.90
21019;DHT22;10667;51.056;3.732;2023-04-25T11:32:56;12.10;99.90
21019;DHT22;10667;51.056;3.732;2023-04-25T11:35:21;12.30;99.90
21019;DHT22;10667;51.056;3.732;2023-04-25T11:37:51;12.30;99.90
21019;DHT22;10667;51.056;3.732;2023-04-25T11:40:17;12.30;99.90
21019;DHT22;10667;51.056;3.732;2023-04-25T11:42:46;12.40;99.90
21019;DHT22;10667;51.056;3.732;2023-04-25T11:45:13;12.30;99.90
21019;DHT22;10667;51.056;3.732;2023-04-25T11:47:39;12.30;99.90
21019;DHT22;10667;51.056;3.732;2023-04-25T11:50:06;12.30;99.90
21019;DHT22;10667;51.056;3.732;2023-04-25T11:52:43;12.30;99.90
21019;DHT22;10667;51.056;3.732;2023-04-25T11:57:38;12.50;99.90
21019;DHT22;10667;51.056;3.732;2023-04-25T12:00:12;12.60;99.90
21019;DHT22;10667;51.056;3.732;2023-04-25T12:02:42;12.50;99.90
21019;DHT22;10667;51.056;3.732;2023-04-25T12:05:09;12.40;99.90
21019;DHT22;10667;51.056;3.732;2023-04-25T12:07:35;12.40;99.90
21019;DHT22;10667;51.056;3.732;2023-04-25T12:10:07;12.20;99.90
21019;DHT22;10667;51.056;3.732;2023-04-25T12:12:34;12.10;99.90
21019;DHT22;10667;51.056;3.732;2023-04-25T12:15:14;12.10;99.90
21019;DHT22;10667;51.056;3.732;2023-04-25T12:17:44;12.10;99.90
21019;DHT22;10667;51.056;3.732;2023-04-25T12:20:13;12.20;99.90
21019;DHT22;10667;51.056;3.732;2023-04-25T12:22:47;12.40;99.90
21019;DHT22;10667;51.056;3.732;2023-04-25T12:25:13;12.60;99.90
21019;DHT22;10667;51.056;3.732;2023-04-25T12:28:18;12.80;99.90
21019;DHT22;10667;51.056;3.732;2023-04-25T12:33:29;12.80;99.90
21019;DHT22;10667;51.056;3.732;2023-04-25T12:35:56;12.80;99.90
21019;DHT22;10667;51.056;3.732;2023-04-25T12:38:27;12.80;99.90
21019;DHT22;10667;51.056;3.732;2023-04-25T12:40:55;12.90;99.90
21019;DHT22;10667;51.056;3.732;2023-04-25T12:43:21;12.80;99.90
21019;DHT22;10667;51.056;3.732;2023-04-25T12:45:54;12.60;99.90
21019;DHT22;10667;51.056;3.732;2023-04-25T12:48:20;12.60;99.90
21019;DHT22;10667;51.056;3.732;2023-04-25T12:50:47;12.70;99.90
21019;DHT22;10667;51.056;3.732;2023-04-25T12:53:20;12.60;99.90
21019;DHT22;10667;51.056;3.732;2023-04-25T12:55:46;12.40;99.90
21019;DHT22;10667;51.056;3.732;2023-04-25T12:58:13;12.30;99.90
21019;DHT22;10667;51.056;3.732;2023-04-25T13:00:39;12.20;99.90
21019;DHT22;10667;51.056;3.732;2023-04-25T13:03:04;12.20;99.90
21019;DHT22;10667;51.056;3.732;2023-04-25T13:05:30;12.10;99.90
21019;DHT22;10667;51.056;3.732;2023-04-25T13:07:56;12.00;99.90
21019;DHT22;10667;51.056;3.732;2023-04-25T13:10:22;12.00;99.90
21019;DHT22;10667;51.056;3.732;2023-04-25T13:12:48;12.10;99.90
21019;DHT22;10667;51.056;3.732;2023-04-25T13:15:14;11.90;99.90
21019;DHT22;10667;51.056;3.732;2023-04-25T13:17:41;12.00;99.90
21019;DHT22;10667;51.056;3.732;2023-04-25T13:20:08;12.20;99.90
21019;DHT22;10667;51.056;3.732;2023-04-25T13:22:38;12.40;99.90
21019;DHT22;10667;51.056;3.732;2023-04-25T13:25:06;12.50;99.90
21019;DHT22;10667;51.056;3.732;2023-04-25T13:27:32;12.50;99.90
21019;DHT22;10667;51.056;3.732;2023-04-25T13:30:00;12.60;99.90
21019;DHT22;10667;51.056;3.732;2023-04-25T13:32:26;12.50;99.90
21019;DHT22;10667;51.056;3.732;2023-04-25T13:34:53;12.20;99.90
21019;DHT22;10667;51.056;3.732;2023-04-25T13:37:18;12.00;99.90
21019;DHT22;10667;51.056;3.732;2023-04-25T13:39:44;12.00;99.90
21019;DHT22;10667;51.056;3.732;2023-04-25T13:42:10;12.00;99.90
21019;DHT22;10667;51.056;3.732;2023-04-25T13:44:36;12.00;99.90
21019;DHT22;10667;51.056;3.732;2023-04-25T13:47:02;12.00;99.90
21019;DHT22;10667;51.056;3.732;2023-04-25T13:49:28;11.90;99.90
21019;DHT22;10667;51.056;3.732;2023-04-25T13:51:54;11.90;99.90
21019;DHT22;10667;51.056;3.732;2023-04-25T13:54:20;11.80;99.90
21019;DHT22;10667;51.056;3.732;2023-04-25T13:56:46;12.00;99.90
21019;DHT22;10667;51.056;3.732;2023-04-25T13:59:11;12.00;99.90
21019;DHT22;10667;51.056;3.732;2023-04-25T14:01:37;11.90;99.90
21019;DHT22;10667;51.056;3.732;2023-04-25T14:04:03;11.80;99.90
21019;DHT22;10667;51.056;3.732;2023-04-25T14:06:32;11.70;99.90
21019;DHT22;10667;51.056;3.732;2023-04-25T14:08:58;11.60;99.90
21019;DHT22;10667;51.056;3.732;2023-04-25T14:11:26;11.50;99.90
21019;DHT22;10667;51.056;3.732;2023-04-25T14:13:51;11.70;99.90
21019;DHT22;10667;51.056;3.732;2023-04-25T14:16:17;12.00;99.90
21019;DHT22;10667;51.056;3.732;2023-04-25T14:18:42;12.20;99.90
21019;DHT22;10667;51.056;3.732;2023-04-25T14:21:09;12.30;99.90
21019;DHT22;10667;51.056;3.732;2023-04-25T14:23:35;12.40;99.90
21019;DHT22;10667;51.056;3.732;2023-04-25T14:26:01;12.40;99.90
21019;DHT22;10667;51.056;3.732;2023-04-25T14:28:27;12.40;99.90
21019;DHT22;10667;51.056;3.732;2023-04-25T14:30:52;12.50;99.90
21019;DHT22;10667;51.056;3.732;2023-04-25T14:33:18;12.50;99.90
21019;DHT22;10667;51.056;3.732;2023-04-25T14:35:44;12.40;99.90
21019;DHT22;10667;51.056;3.732;2023-04-25T14:38:09;12.60;99.90
21019;DHT22;10667;51.056;3.732;2023-04-25T14:40:35;12.60;99.90
21019;DHT22;10667;51.056;3.732;2023-04-25T14:43:01;12.50;99.90
21019;DHT22;10667;51.056;3.732;2023-04-25T14:45:26;12.50;99.90
21019;DHT22;10667;51.056;3.732;2023-04-25T14:47:52;12.50;99.90
21019;DHT22;10667;51.056;3.732;2023-04-25T14:50:18;12.40;99.90
21019;DHT22;10667;51.056;3.732;2023-04-25T14:52:43;12.50;99.90
21019;DHT22;10667;51.056;3.732;2023-04-25T14:55:10;12.40;99.90
21019;DHT22;10667;51.056;3.732;2023-04-25T14:57:36;12.30;99.90
21019;DHT22;10667;51.056;3.732;2023-04-25T15:00:03;12.10;99.90
21019;DHT22;10667;51.056;3.732;2023-04-25T15:02:32;12.00;99.90
21019;DHT22;10667;51.056;3.732;2023-04-25T15:04:58;12.00;99.90
21019;DHT22;10667;51.056;3.732;2023-04-25T15:07:23;12.00;99.90
21019;DHT22;10667;51.056;3.732;2023-04-25T15:09:50;12.10;99.90
21019;DHT22;10667;51.056;3.732;2023-04-25T15:12:15;12.10;99.90
21019;DHT22;10667;51.056;3.732;2023-04-25T15:14:41;12.00;99.90
21019;DHT22;10667;51.056;3.732;2023-04-25T15:17:07;11.90;99.90
21019;DHT22;10667;51.056;3.732;2023-04-25T15:19:32;11.90;99.90
21019;DHT22;10667;51.056;3.732;2023-04-25T15:21:58;12.10;99.90
21019;DHT22;10667;51.056;3.732;2023-04-25T15:24:26;12.30;99.90
21019;DHT22;10667;51.056;3.732;2023-04-25T15:26:52;12.20;99.90
21019;DHT22;10667;51.056;3.732;2023-04-25T15:29:18;11.90;99.90
21019;DHT22;10667;51.056;3.732;2023-04-25T15:31:44;12.10;99.90
21019;DHT22;10667;51.056;3.732;2023-04-25T15:34:10;12.10;99.90
21019;DHT22;10667;51.056;3.732;2023-04-25T15:36:36;12.20;99.90
21019;DHT22;10667;51.056;3.732;2023-04-25T15:39:02;12.00;99.90
21019;DHT22;10667;51.056;3.732;2023-04-25T15:41:28;12.30;99.90